Lexington, Michigan
Current Conditions -  °F | °C
As of 6:00 PM on Thursday 18 Dec 2014 (Local Time) from CYZR Reporting Station
Overcast Overcast  
Wind Chill: -6°   Ceiling: 1500
Heat Index: -2°   Visibility: 9mi
Dew Point: -4°   Wind: 7mph
Humidity: 86%   Direction: 310°NW
Pressure: 30.17"   Gusts: NA
Location:  43.27°N, 82.53°W
Report Text: CYZR 182300Z AUTO 31006KT 9SM BKN015 BKN023 OVC032 M02/M04 A3017 RMK SLP223
Loading
Personal Weather Stations






























Interactive Weather Map New forecast layout! Learn more

10-Day Weather Forecast

Advertisements
Track Severe Weather on mobile